createdAt,value
2018-12-24T00:03:22.807Z,14.70
2018-12-24T00:06:31.607Z,14.70
2018-12-24T00:12:27.818Z,14.40
2018-12-24T00:44:52.583Z,14.70
2018-12-24T00:56:20.801Z,14.50
2018-12-24T00:59:01.911Z,14.70
2018-12-24T01:01:42.865Z,14.70
2018-12-24T01:04:24.170Z,14.70
2018-12-24T01:07:05.344Z,14.70
2018-12-24T01:09:34.824Z,14.70
2018-12-24T01:12:04.298Z,14.70
2018-12-24T01:14:33.659Z,14.70
2018-12-24T01:17:03.135Z,14.60
2018-12-24T01:19:32.545Z,14.60
2018-12-24T01:22:01.918Z,14.60
2018-12-24T01:24:31.412Z,14.60
2018-12-24T01:27:00.826Z,14.60
2018-12-24T01:29:30.187Z,14.60
2018-12-24T01:31:59.662Z,14.60
2018-12-24T01:34:29.063Z,14.60
2018-12-24T01:37:00.557Z,14.70
2018-12-24T01:39:29.677Z,14.60
2018-12-24T01:41:59.149Z,14.70
2018-12-24T01:44:28.627Z,14.60
2018-12-24T01:46:58.105Z,14.60
2018-12-24T01:49:27.511Z,14.60
2018-12-24T01:51:57.002Z,14.60
2018-12-24T01:54:26.469Z,14.60
2018-12-24T01:56:55.936Z,14.60
2018-12-24T01:59:25.329Z,14.60
2018-12-24T02:01:54.967Z,14.60
2018-12-24T02:04:24.468Z,14.60
2018-12-24T02:06:54.056Z,14.60
2018-12-24T02:09:23.530Z,14.60
2018-12-24T02:11:52.985Z,14.60
2018-12-24T02:14:22.405Z,14.60
2018-12-24T02:16:51.795Z,14.60
2018-12-24T02:19:21.369Z,14.60
2018-12-24T02:21:50.979Z,14.60
2018-12-24T02:24:20.353Z,14.60
2018-12-24T02:26:50.008Z,14.50
2018-12-24T02:29:19.440Z,14.60
2018-12-24T02:31:48.945Z,14.50
2018-12-24T02:34:18.478Z,14.60
2018-12-24T02:36:47.874Z,14.50
2018-12-24T02:39:17.433Z,14.60
2018-12-24T02:41:46.858Z,14.60
2018-12-24T02:44:16.307Z,14.50
2018-12-24T02:46:45.742Z,14.50
2018-12-24T02:49:15.454Z,14.60
2018-12-24T02:51:45.218Z,14.60
2018-12-24T02:54:14.683Z,14.50
2018-12-24T02:56:44.200Z,14.50
2018-12-24T02:59:13.695Z,14.60
2018-12-24T03:01:43.189Z,14.60
2018-12-24T03:04:12.751Z,14.60
2018-12-24T03:06:42.201Z,14.60
2018-12-24T03:09:11.773Z,14.50
2018-12-24T03:11:41.350Z,14.50
2018-12-24T03:14:10.924Z,14.60
2018-12-24T03:16:40.420Z,14.50
2018-12-24T03:19:09.946Z,14.60
2018-12-24T03:21:39.360Z,14.50
2018-12-24T03:24:08.765Z,14.50
2018-12-24T03:26:38.306Z,14.50
2018-12-24T03:29:07.848Z,14.50
2018-12-24T03:31:37.259Z,14.50
2018-12-24T03:34:06.731Z,14.50
2018-12-24T03:36:36.409Z,14.50
2018-12-24T03:39:07.428Z,14.50
2018-12-24T03:41:37.040Z,14.50
2018-12-24T03:44:06.605Z,14.50
2018-12-24T03:46:36.028Z,14.50
2018-12-24T03:49:05.510Z,14.50
2018-12-24T03:51:35.007Z,14.50
2018-12-24T03:54:04.419Z,14.50
2018-12-24T03:56:33.998Z,14.50
2018-12-24T03:59:03.547Z,14.50
2018-12-24T04:01:33.191Z,14.50
2018-12-24T04:04:02.630Z,14.50
2018-12-24T04:06:31.992Z,14.50
2018-12-24T04:09:01.589Z,14.50
2018-12-24T04:11:31.451Z,14.50
2018-12-24T04:14:00.981Z,14.50
2018-12-24T04:16:30.525Z,14.50
2018-12-24T04:19:00.006Z,14.40
2018-12-24T04:21:29.406Z,14.50
2018-12-24T04:23:58.946Z,14.50
2018-12-24T04:26:28.423Z,14.40
2018-12-24T04:28:57.916Z,14.50
2018-12-24T04:31:27.434Z,14.50
2018-12-24T04:33:56.907Z,14.40
2018-12-24T04:36:26.467Z,14.40
2018-12-24T04:38:56.175Z,14.40
2018-12-24T04:41:25.771Z,14.40
2018-12-24T04:43:55.206Z,14.40
2018-12-24T04:46:24.703Z,14.40
2018-12-24T04:48:54.689Z,14.40
2018-12-24T04:51:24.263Z,14.40
2018-12-24T04:53:53.669Z,14.40
2018-12-24T04:56:23.117Z,14.40
2018-12-24T04:58:52.854Z,14.40
2018-12-24T05:01:22.320Z,14.40
2018-12-24T05:03:51.736Z,14.40
2018-12-24T05:06:21.312Z,14.40
2018-12-24T05:08:50.768Z,14.40
2018-12-24T05:11:20.141Z,14.40
2018-12-24T05:13:49.603Z,14.40
2018-12-24T05:16:19.177Z,14.40
2018-12-24T05:18:48.627Z,14.40
2018-12-24T05:21:18.059Z,14.40
2018-12-24T05:23:47.545Z,14.40
2018-12-24T05:26:17.016Z,14.40
2018-12-24T05:28:46.418Z,14.40
2018-12-24T05:31:15.974Z,14.40
2018-12-24T05:33:45.387Z,14.40
2018-12-24T05:36:14.958Z,14.40
2018-12-24T05:38:44.526Z,14.40
2018-12-24T05:41:13.983Z,14.40
2018-12-24T05:43:49.429Z,14.40
2018-12-24T05:46:15.011Z,14.40
2018-12-24T05:48:44.403Z,14.40
2018-12-24T05:51:13.802Z,14.40
2018-12-24T05:53:43.236Z,14.40
2018-12-24T05:56:12.585Z,14.40
2018-12-24T05:58:42.367Z,14.40
2018-12-24T06:01:11.968Z,14.30
2018-12-24T06:03:41.362Z,14.30
2018-12-24T06:06:10.760Z,14.30
2018-12-24T06:08:40.307Z,14.30
2018-12-24T06:11:09.711Z,14.30
2018-12-24T06:13:39.131Z,14.30
2018-12-24T06:16:08.632Z,14.40
2018-12-24T06:18:38.415Z,14.40
2018-12-24T06:21:07.816Z,14.30
2018-12-24T06:23:37.346Z,14.40
2018-12-24T06:26:06.856Z,14.30
2018-12-24T06:28:36.402Z,14.30
2018-12-24T06:31:06.056Z,14.30
2018-12-24T06:33:38.615Z,14.30
2018-12-24T06:36:08.032Z,14.30
2018-12-24T06:38:37.514Z,14.30
2018-12-24T06:41:06.932Z,14.40
2018-12-24T06:43:36.435Z,14.30
2018-12-24T06:46:06.001Z,14.30
2018-12-24T06:48:35.637Z,14.30
2018-12-24T06:51:05.267Z,14.30
2018-12-24T06:53:34.744Z,14.30
2018-12-24T06:56:04.173Z,14.30
2018-12-24T06:58:33.890Z,14.30
2018-12-24T07:01:03.374Z,14.30
2018-12-24T07:03:33.093Z,14.30
2018-12-24T07:06:02.603Z,14.30
2018-12-24T07:08:32.008Z,14.30
2018-12-24T07:11:01.737Z,14.30
2018-12-24T07:13:31.128Z,14.30
2018-12-24T07:16:00.652Z,14.30
2018-12-24T07:18:30.070Z,14.30
2018-12-24T07:20:59.517Z,14.20
2018-12-24T07:23:29.133Z,14.30
2018-12-24T07:25:58.890Z,14.30
2018-12-24T07:28:31.290Z,14.30
2018-12-24T07:31:04.932Z,14.30
2018-12-24T07:33:34.628Z,14.30
2018-12-24T07:36:04.326Z,14.30
2018-12-24T07:38:33.931Z,14.20
2018-12-24T07:41:03.563Z,14.30
2018-12-24T07:43:33.155Z,14.30
2018-12-24T07:46:02.777Z,14.30
2018-12-24T07:48:32.377Z,14.20
2018-12-24T07:51:01.888Z,14.30
2018-12-24T07:53:31.450Z,14.20
2018-12-24T07:56:05.878Z,14.30
2018-12-24T07:58:35.444Z,14.30
2018-12-24T08:01:05.097Z,14.20
2018-12-24T08:03:34.821Z,14.20
2018-12-24T08:06:04.310Z,14.30
2018-12-24T08:08:34.389Z,14.30
2018-12-24T08:11:04.101Z,14.30
2018-12-24T08:13:33.741Z,14.20
2018-12-24T08:16:03.311Z,14.20
2018-12-24T08:18:32.966Z,14.20
2018-12-24T08:21:02.757Z,14.30
2018-12-24T08:23:32.547Z,14.20
2018-12-24T08:26:02.156Z,14.30
2018-12-24T08:28:31.665Z,14.30
2018-12-24T08:31:01.219Z,14.30
2018-12-24T08:33:30.933Z,14.30
2018-12-24T08:36:00.594Z,14.30
2018-12-24T08:38:30.344Z,14.30
2018-12-24T08:41:00.013Z,14.30
2018-12-24T08:43:29.734Z,14.30
2018-12-24T08:45:59.345Z,14.30
2018-12-24T08:48:28.909Z,14.30
2018-12-24T08:50:58.607Z,14.30
2018-12-24T08:53:28.270Z,14.40
2018-12-24T08:55:57.874Z,14.40
2018-12-24T08:58:27.495Z,14.40
2018-12-24T09:00:57.264Z,14.40
2018-12-24T09:03:28.271Z,14.40
2018-12-24T09:05:57.777Z,14.40
2018-12-24T09:08:27.221Z,14.30
2018-12-24T09:10:56.800Z,14.30
2018-12-24T09:13:26.505Z,14.40
2018-12-24T09:15:56.433Z,14.50
2018-12-24T09:18:26.075Z,14.40
2018-12-24T09:20:55.678Z,14.40
2018-12-24T09:23:25.475Z,14.40
2018-12-24T09:25:55.249Z,14.40
2018-12-24T09:28:24.922Z,14.40
2018-12-24T09:30:54.480Z,14.40
2018-12-24T09:33:24.105Z,14.40
2018-12-24T09:35:53.738Z,14.40
2018-12-24T09:38:25.899Z,14.50
2018-12-24T09:40:57.391Z,14.40
2018-12-24T09:43:27.020Z,14.40
2018-12-24T09:45:56.848Z,14.40
2018-12-24T09:48:26.561Z,14.40
2018-12-24T09:50:56.006Z,14.40
2018-12-24T09:53:33.133Z,14.40
2018-12-24T09:56:02.795Z,14.40
2018-12-24T09:58:32.279Z,14.40
2018-12-24T10:01:01.890Z,14.40
2018-12-24T10:03:35.899Z,14.40
2018-12-24T10:06:21.261Z,14.40
2018-12-24T10:08:50.853Z,14.30
2018-12-24T10:11:20.416Z,14.40
2018-12-24T10:13:50.156Z,14.30
2018-12-24T10:16:19.857Z,14.40
2018-12-24T10:18:49.540Z,14.30
2018-12-24T10:21:19.168Z,14.40
2018-12-24T10:23:48.698Z,14.40
2018-12-24T10:26:18.316Z,14.30
2018-12-24T10:28:48.046Z,14.40
2018-12-24T10:31:17.894Z,14.40
2018-12-24T10:33:49.766Z,14.40
2018-12-24T10:36:28.497Z,14.30
2018-12-24T10:38:58.323Z,14.40
2018-12-24T10:41:29.748Z,14.50
2018-12-24T10:43:59.614Z,14.40
2018-12-24T10:46:29.196Z,14.40
2018-12-24T10:48:58.929Z,14.40
2018-12-24T10:51:28.498Z,14.40
2018-12-24T10:53:58.159Z,14.40
2018-12-24T10:56:27.893Z,14.40
2018-12-24T10:58:57.552Z,14.40
2018-12-24T11:01:27.510Z,14.50
2018-12-24T11:03:57.380Z,14.40
2018-12-24T11:06:29.626Z,14.40
2018-12-24T11:09:59.531Z,14.50
2018-12-24T11:12:31.274Z,14.60
2018-12-24T11:15:25.096Z,14.50
2018-12-24T11:17:51.024Z,14.50
2018-12-24T11:20:20.760Z,14.50
2018-12-24T11:22:50.445Z,14.50
2018-12-24T11:25:20.044Z,14.40
2018-12-24T11:27:49.621Z,14.50
2018-12-24T11:30:19.330Z,14.50
2018-12-24T11:32:48.877Z,14.50
2018-12-24T11:35:18.500Z,14.50
2018-12-24T11:37:48.533Z,14.60
2018-12-24T11:40:18.636Z,14.50
2018-12-24T11:42:48.332Z,14.50
2018-12-24T11:45:18.429Z,14.50
2018-12-24T11:47:48.043Z,14.50
2018-12-24T11:50:17.638Z,14.50
2018-12-24T11:52:47.203Z,14.50
2018-12-24T11:55:17.145Z,14.50
2018-12-24T11:57:47.508Z,14.60
2018-12-24T12:00:17.310Z,14.50
2018-12-24T12:02:46.928Z,14.60
2018-12-24T12:05:16.522Z,14.60
2018-12-24T12:07:46.238Z,14.50
2018-12-24T12:10:16.172Z,14.60
2018-12-24T12:12:45.901Z,14.50
2018-12-24T12:15:15.569Z,14.50
2018-12-24T12:17:45.234Z,14.60
2018-12-24T12:20:14.919Z,14.50
2018-12-24T12:22:44.970Z,14.60
2018-12-24T12:25:14.872Z,14.40
2018-12-24T12:27:44.846Z,14.50
2018-12-24T12:30:14.451Z,14.50
2018-12-24T12:32:44.178Z,14.50
2018-12-24T12:35:13.848Z,14.50
2018-12-24T12:37:43.463Z,14.50
2018-12-24T12:40:13.313Z,14.50
2018-12-24T12:42:43.249Z,14.50
2018-12-24T12:45:12.791Z,14.50
2018-12-24T12:47:42.864Z,14.50
2018-12-24T12:50:12.667Z,14.50
2018-12-24T12:52:42.587Z,14.50
2018-12-24T12:55:12.146Z,14.50
2018-12-24T12:57:41.732Z,14.60
2018-12-24T13:00:11.440Z,14.60
2018-12-24T13:02:41.115Z,14.90
2018-12-24T13:05:10.717Z,14.80
2018-12-24T13:07:45.326Z,14.60
2018-12-24T13:10:15.672Z,14.60
2018-12-24T13:12:45.960Z,14.60
2018-12-24T13:15:15.733Z,14.50
2018-12-24T13:17:45.727Z,14.50
2018-12-24T13:20:15.879Z,14.50
2018-12-24T13:22:56.157Z,14.40
2018-12-24T13:25:31.711Z,14.50
2018-12-24T13:28:01.392Z,14.50
2018-12-24T13:30:31.085Z,14.50
2018-12-24T13:33:00.693Z,14.50
2018-12-24T13:35:30.747Z,14.50
2018-12-24T13:38:01.169Z,14.40
2018-12-24T13:40:30.754Z,14.40
2018-12-24T13:43:01.468Z,14.40
2018-12-24T13:45:31.206Z,14.40
2018-12-24T13:48:01.218Z,14.40
2018-12-24T13:50:34.061Z,14.40
2018-12-24T13:53:12.786Z,14.40
2018-12-24T13:55:42.327Z,14.50
2018-12-24T13:58:13.739Z,14.40
2018-12-24T14:00:43.487Z,14.40
2018-12-24T14:03:13.082Z,14.50
2018-12-24T14:05:42.823Z,14.40
2018-12-24T14:08:12.416Z,14.50
2018-12-24T14:11:01.036Z,14.50
2018-12-24T14:13:30.668Z,14.40
2018-12-24T14:16:01.769Z,14.40
2018-12-24T14:22:15.254Z,14.40
2018-12-24T14:24:44.789Z,14.40
2018-12-24T14:27:14.575Z,14.40
2018-12-24T14:29:45.576Z,14.40
2018-12-24T14:32:15.156Z,14.40
2018-12-24T14:34:44.672Z,14.40
2018-12-24T14:37:14.373Z,14.30
2018-12-24T14:39:46.833Z,14.40
2018-12-24T14:42:16.429Z,14.40
2018-12-24T14:44:46.046Z,14.30
2018-12-24T14:47:15.555Z,14.40
2018-12-24T14:49:45.272Z,14.40
2018-12-24T14:52:14.915Z,14.40
2018-12-24T14:54:44.596Z,14.40
2018-12-24T14:57:14.192Z,14.30
2018-12-24T14:59:43.902Z,14.30
2018-12-24T15:02:13.809Z,14.40
2018-12-24T15:04:46.995Z,14.40
2018-12-24T15:07:16.755Z,14.40
2018-12-24T15:09:46.430Z,14.30
2018-12-24T15:12:16.451Z,14.30
2018-12-24T15:14:45.975Z,14.30
2018-12-24T15:17:15.711Z,14.30
2018-12-24T15:19:45.305Z,14.20
2018-12-24T15:22:14.754Z,14.30
2018-12-24T15:24:44.512Z,14.30
2018-12-24T15:27:14.164Z,14.30
2018-12-24T15:29:43.841Z,14.30
2018-12-24T15:32:14.573Z,14.30
2018-12-24T15:34:47.356Z,14.30
2018-12-24T15:37:17.293Z,14.20
2018-12-24T15:39:49.138Z,14.20
2018-12-24T15:42:19.704Z,14.30
2018-12-24T15:44:50.658Z,14.30
2018-12-24T15:47:22.632Z,14.30
2018-12-24T15:49:53.972Z,14.30
2018-12-24T15:52:23.939Z,14.30
2018-12-24T15:54:53.585Z,14.30
2018-12-24T15:57:23.352Z,14.30
2018-12-24T15:59:53.055Z,14.20
2018-12-24T16:02:22.674Z,14.20
2018-12-24T16:04:52.639Z,14.30
2018-12-24T16:07:22.379Z,14.30
2018-12-24T16:09:51.860Z,14.20
2018-12-24T16:12:21.729Z,14.30
2018-12-24T16:14:51.217Z,14.20
2018-12-24T16:17:20.833Z,14.30
2018-12-24T16:19:50.336Z,14.20
2018-12-24T16:22:19.962Z,14.30
2018-12-24T16:24:49.553Z,14.20
2018-12-24T16:27:19.052Z,14.20
2018-12-24T16:29:48.566Z,14.20
2018-12-24T16:32:18.381Z,14.20
2018-12-24T16:34:48.114Z,14.20
2018-12-24T16:37:17.659Z,14.20
2018-12-24T16:39:47.410Z,14.20
2018-12-24T16:42:16.929Z,14.20
2018-12-24T16:44:46.844Z,14.20
2018-12-24T16:47:16.335Z,14.20
2018-12-24T16:49:45.837Z,14.20
2018-12-24T16:52:15.865Z,14.20
2018-12-24T16:54:45.521Z,14.20
2018-12-24T16:57:15.389Z,14.20
2018-12-24T16:59:45.183Z,14.20
2018-12-24T17:02:14.987Z,14.10
2018-12-24T17:04:44.773Z,14.10
2018-12-24T17:07:14.447Z,14.20
2018-12-24T17:09:44.053Z,14.20
2018-12-24T17:12:13.753Z,14.20
2018-12-24T17:14:43.564Z,14.20
2018-12-24T17:17:13.060Z,14.20
2018-12-24T17:19:42.695Z,14.10
2018-12-24T17:22:12.253Z,14.20
2018-12-24T17:24:41.901Z,14.10
2018-12-24T17:27:11.566Z,14.10
2018-12-24T17:29:41.303Z,14.10
2018-12-24T17:32:10.825Z,14.10
2018-12-24T17:34:40.420Z,14.10
2018-12-24T17:37:09.948Z,14.10
2018-12-24T17:39:39.424Z,14.10
2018-12-24T17:42:09.186Z,14.10
2018-12-24T17:44:38.836Z,14.10
2018-12-24T17:47:16.071Z,14.10
2018-12-24T17:49:39.735Z,14.10
2018-12-24T17:52:12.414Z,14.10
2018-12-24T17:54:42.107Z,14.10
2018-12-24T17:57:11.617Z,14.10
2018-12-24T17:59:41.304Z,14.10
2018-12-24T18:02:10.992Z,14.00
2018-12-24T18:04:40.540Z,14.10
2018-12-24T18:07:10.157Z,14.10
2018-12-24T18:09:39.978Z,14.10
2018-12-24T18:12:09.998Z,14.10
2018-12-24T18:14:39.594Z,14.10
2018-12-24T18:17:09.521Z,14.20
2018-12-24T18:19:39.248Z,14.10
2018-12-24T18:22:08.935Z,14.10
2018-12-24T18:24:38.445Z,14.10
2018-12-24T18:27:08.160Z,14.00
2018-12-24T18:29:37.777Z,14.10
2018-12-24T18:32:07.359Z,14.10
2018-12-24T18:34:36.881Z,14.00
2018-12-24T18:37:06.429Z,14.00
2018-12-24T18:39:35.991Z,14.00
2018-12-24T18:42:05.672Z,14.00
2018-12-24T18:44:35.416Z,14.10
2018-12-24T18:47:05.253Z,14.00
2018-12-24T18:49:35.346Z,14.00
2018-12-24T18:52:04.919Z,14.00
2018-12-24T18:54:34.784Z,14.00
2018-12-24T18:57:04.673Z,14.00
2018-12-24T18:59:34.602Z,14.00
2018-12-24T19:02:04.319Z,14.00
2018-12-24T19:04:35.212Z,14.00
2018-12-24T19:07:05.056Z,14.10
2018-12-24T19:09:35.112Z,14.00
2018-12-24T19:12:04.640Z,14.00
2018-12-24T19:14:34.289Z,14.00
2018-12-24T19:17:04.310Z,13.90
2018-12-24T19:19:34.153Z,14.00
2018-12-24T19:22:03.890Z,14.00
2018-12-24T19:24:33.463Z,14.00
2018-12-24T19:27:03.270Z,14.00
2018-12-24T19:29:33.091Z,14.00
2018-12-24T19:32:03.286Z,14.00
2018-12-24T19:34:33.062Z,14.00
2018-12-24T19:37:02.611Z,14.00
2018-12-24T19:39:32.522Z,14.00
2018-12-24T19:42:02.545Z,14.00
2018-12-24T19:44:32.465Z,13.90
2018-12-24T19:47:02.179Z,13.90
2018-12-24T19:49:31.878Z,13.90
2018-12-24T19:52:01.724Z,14.00
2018-12-24T19:54:31.231Z,13.90
2018-12-24T19:57:00.939Z,13.80
2018-12-24T19:59:30.627Z,13.90
2018-12-24T20:02:00.569Z,13.90
2018-12-24T20:04:30.251Z,13.90
2018-12-24T20:06:59.748Z,13.90
2018-12-24T20:09:29.799Z,13.90
2018-12-24T20:12:02.480Z,13.90
2018-12-24T20:14:32.353Z,13.90
2018-12-24T20:17:02.110Z,13.90
2018-12-24T20:19:31.664Z,13.90
2018-12-24T20:22:01.529Z,13.90
2018-12-24T20:24:31.518Z,13.90
2018-12-24T20:27:01.497Z,13.90
2018-12-24T20:29:31.268Z,13.90
2018-12-24T20:32:02.947Z,13.90
2018-12-24T20:34:32.632Z,13.90
2018-12-24T20:37:02.296Z,13.90
2018-12-24T20:39:32.292Z,13.90
2018-12-24T20:42:04.925Z,13.90
2018-12-24T20:44:34.867Z,13.90
2018-12-24T20:47:04.850Z,13.90
2018-12-24T20:49:34.567Z,13.90
2018-12-24T20:52:04.193Z,13.90
2018-12-24T20:54:33.910Z,13.80
2018-12-24T21:00:02.255Z,13.80
2018-12-24T21:05:33.855Z,13.80
2018-12-24T21:08:15.247Z,13.80
2018-12-24T21:10:56.065Z,13.50
2018-12-24T21:13:37.707Z,13.80
2018-12-24T21:16:19.152Z,13.80
2018-12-24T21:19:00.743Z,13.90
2018-12-24T21:21:42.401Z,13.90
2018-12-24T21:24:23.982Z,13.90
2018-12-24T21:27:05.566Z,13.80
2018-12-24T21:29:47.061Z,13.80
2018-12-24T21:32:28.524Z,13.80
2018-12-24T21:35:09.279Z,13.80
2018-12-24T21:37:50.692Z,13.80
2018-12-24T21:40:32.209Z,13.80
2018-12-24T21:43:13.799Z,13.80
2018-12-24T21:45:55.197Z,13.80
2018-12-24T21:48:36.582Z,13.80
2018-12-24T21:51:17.999Z,13.80
2018-12-24T21:53:59.656Z,13.80
2018-12-24T21:56:41.040Z,13.80
2018-12-24T21:59:22.442Z,13.80
2018-12-24T22:02:04.148Z,13.80
2018-12-24T22:04:45.645Z,13.80
2018-12-24T22:07:27.242Z,13.80
2018-12-24T22:10:08.833Z,13.80
2018-12-24T22:12:50.294Z,13.60
2018-12-24T22:15:31.887Z,13.70
2018-12-24T22:18:13.561Z,13.70
2018-12-24T22:20:54.263Z,13.70
2018-12-24T22:23:35.081Z,13.80
2018-12-24T22:26:15.858Z,13.70
2018-12-24T22:28:57.179Z,13.70
2018-12-24T22:31:38.783Z,13.70
2018-12-24T22:34:19.596Z,13.70
2018-12-24T22:37:00.987Z,13.60
2018-12-24T22:39:41.763Z,13.60
2018-12-24T22:42:23.400Z,13.70
2018-12-24T22:45:04.655Z,13.70
2018-12-24T22:51:05.120Z,13.70
2018-12-24T22:57:05.678Z,13.70
2018-12-24T22:59:47.330Z,13.60
2018-12-24T23:02:28.797Z,13.50
2018-12-24T23:05:10.514Z,13.70
2018-12-24T23:07:51.344Z,13.70
2018-12-24T23:10:32.959Z,13.60
2018-12-24T23:13:14.218Z,13.70
2018-12-24T23:15:55.929Z,13.70
2018-12-24T23:18:36.752Z,13.60
2018-12-24T23:24:22.848Z,13.60
2018-12-24T23:27:04.794Z,13.60
2018-12-24T23:29:46.158Z,13.60
2018-12-24T23:32:26.942Z,13.30
2018-12-24T23:35:08.468Z,13.60
2018-12-24T23:37:49.935Z,13.30
2018-12-24T23:40:32.079Z,13.60
2018-12-24T23:43:13.644Z,13.60
2018-12-24T23:45:55.034Z,13.60
2018-12-24T23:48:36.075Z,13.60
2018-12-24T23:51:17.586Z,13.60
2018-12-24T23:54:05.125Z,13.60
2018-12-24T23:56:46.611Z,13.70
2018-12-24T23:59:28.130Z,13.70
